sensor_id;sensor_type;location;lat;lon;timestamp;temperature;humidity
6654;DHT22;3363;50.942;7.034;2023-05-10T00:00:37;16.70;99.90
6654;DHT22;3363;50.942;7.034;2023-05-10T00:03:04;16.70;99.90
6654;DHT22;3363;50.942;7.034;2023-05-10T00:05:30;16.70;99.90
6654;DHT22;3363;50.942;7.034;2023-05-10T00:07:57;16.70;99.90
6654;DHT22;3363;50.942;7.034;2023-05-10T00:10:24;16.70;99.90
6654;DHT22;3363;50.942;7.034;2023-05-10T00:12:50;16.70;99.90
6654;DHT22;3363;50.942;7.034;2023-05-10T00:15:18;16.70;99.90
6654;DHT22;3363;50.942;7.034;2023-05-10T00:17:45;16.70;99.90
6654;DHT22;3363;50.942;7.034;2023-05-10T00:20:12;16.70;99.90
6654;DHT22;3363;50.942;7.034;2023-05-10T00:22:38;16.60;99.90
6654;DHT22;3363;50.942;7.034;2023-05-10T00:25:06;16.60;99.90
6654;DHT22;3363;50.942;7.034;2023-05-10T00:27:33;16.60;99.90
6654;DHT22;3363;50.942;7.034;2023-05-10T00:29:59;16.50;99.90
6654;DHT22;3363;50.942;7.034;2023-05-10T00:32:27;16.60;99.90
6654;DHT22;3363;50.942;7.034;2023-05-10T00:34:54;16.60;99.90
6654;DHT22;3363;50.942;7.034;2023-05-10T00:37:21;16.60;99.90
6654;DHT22;3363;50.942;7.034;2023-05-10T00:39:48;16.60;99.90
6654;DHT22;3363;50.942;7.034;2023-05-10T00:42:14;16.60;99.90
6654;DHT22;3363;50.942;7.034;2023-05-10T00:44:41;16.60;99.90
6654;DHT22;3363;50.942;7.034;2023-05-10T00:47:08;16.60;99.90
6654;DHT22;3363;50.942;7.034;2023-05-10T00:49:36;16.60;99.90
6654;DHT22;3363;50.942;7.034;2023-05-10T00:52:03;16.60;99.90
6654;DHT22;3363;50.942;7.034;2023-05-10T00:54:30;16.60;99.90
6654;DHT22;3363;50.942;7.034;2023-05-10T00:56:56;16.60;99.90
6654;DHT22;3363;50.942;7.034;2023-05-10T00:59:24;16.60;99.90
6654;DHT22;3363;50.942;7.034;2023-05-10T01:01:50;16.60;99.90
6654;DHT22;3363;50.942;7.034;2023-05-10T01:04:18;16.60;99.90
6654;DHT22;3363;50.942;7.034;2023-05-10T01:06:52;16.60;99.90
6654;DHT22;3363;50.942;7.034;2023-05-10T01:09:19;16.60;99.90
6654;DHT22;3363;50.942;7.034;2023-05-10T01:11:45;16.50;99.90
6654;DHT22;3363;50.942;7.034;2023-05-10T01:14:12;16.50;99.90
6654;DHT22;3363;50.942;7.034;2023-05-10T01:16:40;16.50;99.90
6654;DHT22;3363;50.942;7.034;2023-05-10T01:19:10;16.50;99.90
6654;DHT22;3363;50.942;7.034;2023-05-10T01:21:41;16.50;99.90
6654;DHT22;3363;50.942;7.034;2023-05-10T01:24:14;16.50;99.90
6654;DHT22;3363;50.942;7.034;2023-05-10T01:26:56;16.50;99.90
6654;DHT22;3363;50.942;7.034;2023-05-10T01:32:17;16.50;99.90
6654;DHT22;3363;50.942;7.034;2023-05-10T01:34:48;16.50;99.90
6654;DHT22;3363;50.942;7.034;2023-05-10T01:37:20;16.40;99.90
6654;DHT22;3363;50.942;7.034;2023-05-10T01:39:49;16.50;99.90
6654;DHT22;3363;50.942;7.034;2023-05-10T01:42:20;16.50;99.90
6654;DHT22;3363;50.942;7.034;2023-05-10T01:44:49;16.50;99.90
6654;DHT22;3363;50.942;7.034;2023-05-10T01:47:20;16.40;99.90
6654;DHT22;3363;50.942;7.034;2023-05-10T01:49:50;16.50;99.90
6654;DHT22;3363;50.942;7.034;2023-05-10T01:52:19;16.50;99.90
6654;DHT22;3363;50.942;7.034;2023-05-10T01:54:49;16.50;99.90
6654;DHT22;3363;50.942;7.034;2023-05-10T01:57:16;16.40;99.90
6654;DHT22;3363;50.942;7.034;2023-05-10T01:59:45;16.50;99.90
6654;DHT22;3363;50.942;7.034;2023-05-10T02:02:14;16.40;99.90
6654;DHT22;3363;50.942;7.034;2023-05-10T02:04:43;16.40;99.90
6654;DHT22;3363;50.942;7.034;2023-05-10T02:07:10;16.40;99.90
6654;DHT22;3363;50.942;7.034;2023-05-10T02:09:37;16.40;99.90
6654;DHT22;3363;50.942;7.034;2023-05-10T02:12:05;16.40;99.90
6654;DHT22;3363;50.942;7.034;2023-05-10T02:14:34;16.20;99.90
6654;DHT22;3363;50.942;7.034;2023-05-10T02:17:01;16.20;99.90
6654;DHT22;3363;50.942;7.034;2023-05-10T02:19:28;16.00;99.90
6654;DHT22;3363;50.942;7.034;2023-05-10T02:21:56;15.90;99.90
6654;DHT22;3363;50.942;7.034;2023-05-10T02:24:23;15.90;99.90
6654;DHT22;3363;50.942;7.034;2023-05-10T02:26:51;15.90;99.90
6654;DHT22;3363;50.942;7.034;2023-05-10T02:29:18;16.00;99.90
6654;DHT22;3363;50.942;7.034;2023-05-10T02:31:45;16.00;99.90
6654;DHT22;3363;50.942;7.034;2023-05-10T02:34:12;15.90;99.90
6654;DHT22;3363;50.942;7.034;2023-05-10T02:36:39;16.00;99.90
6654;DHT22;3363;50.942;7.034;2023-05-10T02:39:09;16.10;99.90
6654;DHT22;3363;50.942;7.034;2023-05-10T02:45:12;16.10;99.90
6654;DHT22;3363;50.942;7.034;2023-05-10T02:53:50;16.00;99.90
6654;DHT22;3363;50.942;7.034;2023-05-10T02:56:33;16.10;99.90
6654;DHT22;3363;50.942;7.034;2023-05-10T02:59:00;16.10;99.90
6654;DHT22;3363;50.942;7.034;2023-05-10T03:01:27;16.10;99.90
6654;DHT22;3363;50.942;7.034;2023-05-10T03:03:54;16.00;99.90
6654;DHT22;3363;50.942;7.034;2023-05-10T03:06:21;15.90;99.90
6654;DHT22;3363;50.942;7.034;2023-05-10T03:08:47;16.00;99.90
6654;DHT22;3363;50.942;7.034;2023-05-10T03:11:23;16.00;99.90
6654;DHT22;3363;50.942;7.034;2023-05-10T03:13:55;16.00;99.90
6654;DHT22;3363;50.942;7.034;2023-05-10T03:16:24;15.90;99.90
6654;DHT22;3363;50.942;7.034;2023-05-10T03:18:54;16.00;99.90
6654;DHT22;3363;50.942;7.034;2023-05-10T03:21:22;16.00;99.90
6654;DHT22;3363;50.942;7.034;2023-05-10T03:23:51;16.00;99.90
6654;DHT22;3363;50.942;7.034;2023-05-10T03:26:25;16.10;99.90
6654;DHT22;3363;50.942;7.034;2023-05-10T03:28:52;16.00;99.90
6654;DHT22;3363;50.942;7.034;2023-05-10T03:31:19;16.00;99.90
6654;DHT22;3363;50.942;7.034;2023-05-10T03:33:46;16.10;99.90
6654;DHT22;3363;50.942;7.034;2023-05-10T03:36:13;16.00;99.90
6654;DHT22;3363;50.942;7.034;2023-05-10T03:38:40;16.00;99.90
6654;DHT22;3363;50.942;7.034;2023-05-10T03:41:06;16.00;99.90
6654;DHT22;3363;50.942;7.034;2023-05-10T03:43:34;16.00;99.90
6654;DHT22;3363;50.942;7.034;2023-05-10T03:46:01;16.00;99.90
6654;DHT22;3363;50.942;7.034;2023-05-10T03:48:28;16.00;99.90
6654;DHT22;3363;50.942;7.034;2023-05-10T03:50:55;16.00;99.90
6654;DHT22;3363;50.942;7.034;2023-05-10T03:53:22;16.00;99.90
6654;DHT22;3363;50.942;7.034;2023-05-10T03:55:49;16.00;99.90
6654;DHT22;3363;50.942;7.034;2023-05-10T03:58:15;16.00;99.90
6654;DHT22;3363;50.942;7.034;2023-05-10T04:00:43;16.00;99.90
6654;DHT22;3363;50.942;7.034;2023-05-10T04:03:11;16.00;99.90
6654;DHT22;3363;50.942;7.034;2023-05-10T04:05:38;16.00;99.90
6654;DHT22;3363;50.942;7.034;2023-05-10T04:08:05;16.00;99.90
6654;DHT22;3363;50.942;7.034;2023-05-10T04:10:32;15.90;99.90
6654;DHT22;3363;50.942;7.034;2023-05-10T04:12:58;15.90;99.90
6654;DHT22;3363;50.942;7.034;2023-05-10T04:15:25;15.90;99.90
6654;DHT22;3363;50.942;7.034;2023-05-10T04:17:53;15.90;99.90
6654;DHT22;3363;50.942;7.034;2023-05-10T04:20:20;15.90;99.90
6654;DHT22;3363;50.942;7.034;2023-05-10T04:22:46;15.90;99.90
6654;DHT22;3363;50.942;7.034;2023-05-10T04:25:13;15.90;99.90
6654;DHT22;3363;50.942;7.034;2023-05-10T04:27:40;15.80;99.90
6654;DHT22;3363;50.942;7.034;2023-05-10T04:30:07;15.90;99.90
6654;DHT22;3363;50.942;7.034;2023-05-10T04:32:34;15.80;99.90
6654;DHT22;3363;50.942;7.034;2023-05-10T04:35:02;15.80;99.90
6654;DHT22;3363;50.942;7.034;2023-05-10T04:37:30;15.80;99.90
6654;DHT22;3363;50.942;7.034;2023-05-10T04:39:56;15.90;99.90
6654;DHT22;3363;50.942;7.034;2023-05-10T04:42:25;15.90;99.90
6654;DHT22;3363;50.942;7.034;2023-05-10T04:44:51;15.90;99.90
6654;DHT22;3363;50.942;7.034;2023-05-10T04:47:18;15.80;99.90
6654;DHT22;3363;50.942;7.034;2023-05-10T04:49:45;15.70;99.90
6654;DHT22;3363;50.942;7.034;2023-05-10T04:52:13;15.70;99.90
6654;DHT22;3363;50.942;7.034;2023-05-10T04:54:40;15.70;99.90
6654;DHT22;3363;50.942;7.034;2023-05-10T04:57:07;15.60;99.90
6654;DHT22;3363;50.942;7.034;2023-05-10T04:59:35;15.50;99.90
6654;DHT22;3363;50.942;7.034;2023-05-10T05:02:01;15.50;99.90
6654;DHT22;3363;50.942;7.034;2023-05-10T05:04:29;15.50;99.90
6654;DHT22;3363;50.942;7.034;2023-05-10T05:06:56;15.50;99.90
6654;DHT22;3363;50.942;7.034;2023-05-10T05:09:25;15.60;99.90
6654;DHT22;3363;50.942;7.034;2023-05-10T05:11:52;15.50;99.90
6654;DHT22;3363;50.942;7.034;2023-05-10T05:14:18;15.50;99.90
6654;DHT22;3363;50.942;7.034;2023-05-10T05:16:46;15.50;99.90
6654;DHT22;3363;50.942;7.034;2023-05-10T05:19:12;15.50;99.90
6654;DHT22;3363;50.942;7.034;2023-05-10T05:21:39;15.60;99.90
6654;DHT22;3363;50.942;7.034;2023-05-10T05:24:06;15.50;99.90
6654;DHT22;3363;50.942;7.034;2023-05-10T05:26:34;15.50;99.90
6654;DHT22;3363;50.942;7.034;2023-05-10T05:29:01;15.50;99.90
6654;DHT22;3363;50.942;7.034;2023-05-10T05:31:28;15.60;99.90
6654;DHT22;3363;50.942;7.034;2023-05-10T05:33:54;15.60;99.90
6654;DHT22;3363;50.942;7.034;2023-05-10T05:36:21;15.50;99.90
6654;DHT22;3363;50.942;7.034;2023-05-10T05:38:48;15.50;99.90
6654;DHT22;3363;50.942;7.034;2023-05-10T05:41:14;15.50;99.90
6654;DHT22;3363;50.942;7.034;2023-05-10T05:43:42;15.60;99.90
6654;DHT22;3363;50.942;7.034;2023-05-10T05:46:09;15.50;99.90
6654;DHT22;3363;50.942;7.034;2023-05-10T05:48:36;15.50;99.90
6654;DHT22;3363;50.942;7.034;2023-05-10T05:51:02;15.50;99.90
6654;DHT22;3363;50.942;7.034;2023-05-10T05:53:29;15.30;99.90
6654;DHT22;3363;50.942;7.034;2023-05-10T05:55:57;15.40;99.90
6654;DHT22;3363;50.942;7.034;2023-05-10T05:58:24;15.50;99.90
6654;DHT22;3363;50.942;7.034;2023-05-10T06:00:52;15.50;99.90
6654;DHT22;3363;50.942;7.034;2023-05-10T06:03:19;15.50;99.90
6654;DHT22;3363;50.942;7.034;2023-05-10T06:05:46;15.50;99.90
6654;DHT22;3363;50.942;7.034;2023-05-10T06:08:13;15.50;99.90
6654;DHT22;3363;50.942;7.034;2023-05-10T06:10:39;15.50;99.90
6654;DHT22;3363;50.942;7.034;2023-05-10T06:13:06;15.50;99.90
6654;DHT22;3363;50.942;7.034;2023-05-10T06:15:33;15.50;99.90
6654;DHT22;3363;50.942;7.034;2023-05-10T06:18:01;15.60;99.90
6654;DHT22;3363;50.942;7.034;2023-05-10T06:20:27;15.40;99.90
6654;DHT22;3363;50.942;7.034;2023-05-10T06:22:54;15.40;99.90
6654;DHT22;3363;50.942;7.034;2023-05-10T06:25:21;15.50;99.90
6654;DHT22;3363;50.942;7.034;2023-05-10T06:27:47;15.50;99.90
6654;DHT22;3363;50.942;7.034;2023-05-10T06:30:14;15.50;99.90
6654;DHT22;3363;50.942;7.034;2023-05-10T06:32:43;15.50;99.90
6654;DHT22;3363;50.942;7.034;2023-05-10T06:35:11;15.50;99.90
6654;DHT22;3363;50.942;7.034;2023-05-10T06:37:38;15.40;99.90
6654;DHT22;3363;50.942;7.034;2023-05-10T06:40:05;15.50;99.90
6654;DHT22;3363;50.942;7.034;2023-05-10T06:42:32;15.50;99.90
6654;DHT22;3363;50.942;7.034;2023-05-10T06:44:59;15.40;99.90
6654;DHT22;3363;50.942;7.034;2023-05-10T06:47:26;15.30;99.90
6654;DHT22;3363;50.942;7.034;2023-05-10T06:49:52;15.40;99.90
6654;DHT22;3363;50.942;7.034;2023-05-10T06:52:20;15.50;99.90
6654;DHT22;3363;50.942;7.034;2023-05-10T06:54:47;15.50;99.90
6654;DHT22;3363;50.942;7.034;2023-05-10T06:57:13;15.40;99.90
6654;DHT22;3363;50.942;7.034;2023-05-10T06:59:40;15.50;99.90
6654;DHT22;3363;50.942;7.034;2023-05-10T07:02:07;15.50;99.90
6654;DHT22;3363;50.942;7.034;2023-05-10T07:04:33;15.50;99.90
6654;DHT22;3363;50.942;7.034;2023-05-10T07:07:00;15.50;99.90
6654;DHT22;3363;50.942;7.034;2023-05-10T07:09:28;15.40;99.90
6654;DHT22;3363;50.942;7.034;2023-05-10T07:11:55;15.50;99.90
6654;DHT22;3363;50.942;7.034;2023-05-10T07:14:22;15.40;99.90
6654;DHT22;3363;50.942;7.034;2023-05-10T07:16:49;15.40;99.90
6654;DHT22;3363;50.942;7.034;2023-05-10T07:19:16;15.30;99.90
6654;DHT22;3363;50.942;7.034;2023-05-10T07:21:42;15.30;99.90
6654;DHT22;3363;50.942;7.034;2023-05-10T07:24:09;15.30;99.90
6654;DHT22;3363;50.942;7.034;2023-05-10T07:26:37;15.30;99.90
6654;DHT22;3363;50.942;7.034;2023-05-10T07:29:04;15.30;99.90
6654;DHT22;3363;50.942;7.034;2023-05-10T07:31:30;15.40;99.90
6654;DHT22;3363;50.942;7.034;2023-05-10T07:33:57;15.40;99.90
6654;DHT22;3363;50.942;7.034;2023-05-10T07:36:23;15.40;99.90
6654;DHT22;3363;50.942;7.034;2023-05-10T07:38:50;15.50;99.90
6654;DHT22;3363;50.942;7.034;2023-05-10T07:41:17;15.50;99.90
6654;DHT22;3363;50.942;7.034;2023-05-10T07:43:45;15.50;99.90
6654;DHT22;3363;50.942;7.034;2023-05-10T07:46:11;15.40;99.90
6654;DHT22;3363;50.942;7.034;2023-05-10T07:48:38;15.50;99.90
6654;DHT22;3363;50.942;7.034;2023-05-10T07:51:05;15.40;99.90
6654;DHT22;3363;50.942;7.034;2023-05-10T07:53:34;15.50;99.90
6654;DHT22;3363;50.942;7.034;2023-05-10T07:56:19;15.50;99.90
6654;DHT22;3363;50.942;7.034;2023-05-10T07:58:47;15.60;99.90
6654;DHT22;3363;50.942;7.034;2023-05-10T08:01:14;15.50;99.90
6654;DHT22;3363;50.942;7.034;2023-05-10T08:03:40;15.50;99.90
6654;DHT22;3363;50.942;7.034;2023-05-10T08:06:07;15.50;99.90
6654;DHT22;3363;50.942;7.034;2023-05-10T08:08:34;15.50;99.90
6654;DHT22;3363;50.942;7.034;2023-05-10T08:11:00;15.50;99.90
6654;DHT22;3363;50.942;7.034;2023-05-10T08:13:27;15.50;99.90
6654;DHT22;3363;50.942;7.034;2023-05-10T08:15:55;15.50;99.90
6654;DHT22;3363;50.942;7.034;2023-05-10T08:18:22;15.50;99.90
6654;DHT22;3363;50.942;7.034;2023-05-10T08:20:48;15.50;99.90
6654;DHT22;3363;50.942;7.034;2023-05-10T08:23:15;15.50;99.90
6654;DHT22;3363;50.942;7.034;2023-05-10T08:25:42;15.50;99.90
6654;DHT22;3363;50.942;7.034;2023-05-10T08:28:08;15.50;99.90
6654;DHT22;3363;50.942;7.034;2023-05-10T08:30:35;15.50;99.90
6654;DHT22;3363;50.942;7.034;2023-05-10T08:33:03;15.50;99.90
6654;DHT22;3363;50.942;7.034;2023-05-10T08:35:29;15.50;99.90
6654;DHT22;3363;50.942;7.034;2023-05-10T08:37:56;15.50;99.90
6654;DHT22;3363;50.942;7.034;2023-05-10T08:42:54;15.50;99.90
6654;DHT22;3363;50.942;7.034;2023-05-10T08:45:21;15.50;99.90
6654;DHT22;3363;50.942;7.034;2023-05-10T08:47:49;15.50;99.90
6654;DHT22;3363;50.942;7.034;2023-05-10T08:50:17;15.40;99.90
6654;DHT22;3363;50.942;7.034;2023-05-10T08:52:47;15.40;99.90
6654;DHT22;3363;50.942;7.034;2023-05-10T09:18:26;15.40;99.90
6654;DHT22;3363;50.942;7.034;2023-05-10T09:20:53;15.40;99.90
6654;DHT22;3363;50.942;7.034;2023-05-10T09:23:19;15.40;99.90
6654;DHT22;3363;50.942;7.034;2023-05-10T10:46:49;16.00;99.90
6654;DHT22;3363;50.942;7.034;2023-05-10T10:49:27;16.20;99.90
6654;DHT22;3363;50.942;7.034;2023-05-10T11:13:39;16.50;99.90
6654;DHT22;3363;50.942;7.034;2023-05-10T11:16:58;16.50;99.90
6654;DHT22;3363;50.942;7.034;2023-05-10T11:23:10;16.60;99.90
6654;DHT22;3363;50.942;7.034;2023-05-10T11:25:40;16.50;99.90
6654;DHT22;3363;50.942;7.034;2023-05-10T11:28:07;16.40;99.90
6654;DHT22;3363;50.942;7.034;2023-05-10T11:30:35;16.40;99.90
6654;DHT22;3363;50.942;7.034;2023-05-10T11:33:02;16.40;99.90
6654;DHT22;3363;50.942;7.034;2023-05-10T11:35:29;16.40;99.90
6654;DHT22;3363;50.942;7.034;2023-05-10T11:37:55;16.40;99.90
6654;DHT22;3363;50.942;7.034;2023-05-10T11:40:22;16.40;99.90
6654;DHT22;3363;50.942;7.034;2023-05-10T11:42:50;16.40;99.90
6654;DHT22;3363;50.942;7.034;2023-05-10T11:45:16;16.40;99.90
6654;DHT22;3363;50.942;7.034;2023-05-10T11:47:44;16.40;99.90
6654;DHT22;3363;50.942;7.034;2023-05-10T11:50:14;16.40;99.90
6654;DHT22;3363;50.942;7.034;2023-05-10T11:52:41;16.40;99.10
6654;DHT22;3363;50.942;7.034;2023-05-10T11:55:07;16.30;99.90
6654;DHT22;3363;50.942;7.034;2023-05-10T11:57:34;16.30;99.90
6654;DHT22;3363;50.942;7.034;2023-05-10T12:00:04;16.30;96.20
6654;DHT22;3363;50.942;7.034;2023-05-10T12:02:30;16.20;99.00
6654;DHT22;3363;50.942;7.034;2023-05-10T12:04:58;16.20;98.50
6654;DHT22;3363;50.942;7.034;2023-05-10T12:07:25;16.10;99.60
6654;DHT22;3363;50.942;7.034;2023-05-10T12:10:05;16.10;99.90
6654;DHT22;3363;50.942;7.034;2023-05-10T12:12:35;16.10;99.90
6654;DHT22;3363;50.942;7.034;2023-05-10T12:15:03;16.10;99.90
6654;DHT22;3363;50.942;7.034;2023-05-10T12:17:30;16.10;99.90
6654;DHT22;3363;50.942;7.034;2023-05-10T12:19:59;16.20;98.10
6654;DHT22;3363;50.942;7.034;2023-05-10T12:22:38;16.20;96.60
6654;DHT22;3363;50.942;7.034;2023-05-10T12:25:08;16.30;98.30
6654;DHT22;3363;50.942;7.034;2023-05-10T12:27:35;16.40;97.60
6654;DHT22;3363;50.942;7.034;2023-05-10T12:30:01;16.50;99.20
6654;DHT22;3363;50.942;7.034;2023-05-10T12:32:37;16.50;95.00
6654;DHT22;3363;50.942;7.034;2023-05-10T12:35:05;16.50;94.10
6654;DHT22;3363;50.942;7.034;2023-05-10T12:37:32;16.60;93.30
6654;DHT22;3363;50.942;7.034;2023-05-10T12:40:01;16.60;91.20
6654;DHT22;3363;50.942;7.034;2023-05-10T12:42:28;16.70;90.80
6654;DHT22;3363;50.942;7.034;2023-05-10T12:44:55;16.70;88.00
6654;DHT22;3363;50.942;7.034;2023-05-10T12:47:22;16.80;86.70
6654;DHT22;3363;50.942;7.034;2023-05-10T12:49:48;16.80;90.30
6654;DHT22;3363;50.942;7.034;2023-05-10T12:52:17;16.80;88.50
6654;DHT22;3363;50.942;7.034;2023-05-10T12:54:44;16.80;87.60
6654;DHT22;3363;50.942;7.034;2023-05-10T12:57:11;16.80;89.10
6654;DHT22;3363;50.942;7.034;2023-05-10T12:59:37;16.70;85.70
6654;DHT22;3363;50.942;7.034;2023-05-10T13:02:04;16.60;85.20
6654;DHT22;3363;50.942;7.034;2023-05-10T13:04:31;16.60;80.80
6654;DHT22;3363;50.942;7.034;2023-05-10T13:06:57;16.50;84.30
6654;DHT22;3363;50.942;7.034;2023-05-10T13:09:25;16.60;84.40
6654;DHT22;3363;50.942;7.034;2023-05-10T13:11:53;16.70;85.30
6654;DHT22;3363;50.942;7.034;2023-05-10T13:14:20;16.70;83.20
6654;DHT22;3363;50.942;7.034;2023-05-10T13:16:47;16.80;85.70
6654;DHT22;3363;50.942;7.034;2023-05-10T13:19:14;16.90;85.40
6654;DHT22;3363;50.942;7.034;2023-05-10T13:21:40;17.00;80.20
6654;DHT22;3363;50.942;7.034;2023-05-10T13:24:07;17.10;79.50
6654;DHT22;3363;50.942;7.034;2023-05-10T13:26:35;17.10;76.20
6654;DHT22;3363;50.942;7.034;2023-05-10T13:29:02;17.00;74.40
6654;DHT22;3363;50.942;7.034;2023-05-10T13:31:29;17.00;74.20
6654;DHT22;3363;50.942;7.034;2023-05-10T13:33:55;17.10;75.90
6654;DHT22;3363;50.942;7.034;2023-05-10T13:36:22;17.30;79.00
6654;DHT22;3363;50.942;7.034;2023-05-10T13:38:49;17.30;72.70
6654;DHT22;3363;50.942;7.034;2023-05-10T13:41:15;17.40;77.50
6654;DHT22;3363;50.942;7.034;2023-05-10T13:43:43;17.30;73.00
6654;DHT22;3363;50.942;7.034;2023-05-10T13:46:10;17.20;72.30
6654;DHT22;3363;50.942;7.034;2023-05-10T13:48:36;17.10;67.40
6654;DHT22;3363;50.942;7.034;2023-05-10T13:51:03;17.00;71.60
6654;DHT22;3363;50.942;7.034;2023-05-10T13:53:30;17.00;75.30
6654;DHT22;3363;50.942;7.034;2023-05-10T13:55:56;17.00;76.20
6654;DHT22;3363;50.942;7.034;2023-05-10T13:58:23;17.10;74.40
6654;DHT22;3363;50.942;7.034;2023-05-10T14:00:51;17.10;72.00
6654;DHT22;3363;50.942;7.034;2023-05-10T14:03:18;17.30;75.10
6654;DHT22;3363;50.942;7.034;2023-05-10T14:05:44;17.40;73.50
6654;DHT22;3363;50.942;7.034;2023-05-10T14:08:12;17.40;73.50
6654;DHT22;3363;50.942;7.034;2023-05-10T14:10:39;17.50;71.90
6654;DHT22;3363;50.942;7.034;2023-05-10T14:13:06;17.50;70.00
6654;DHT22;3363;50.942;7.034;2023-05-10T14:15:33;17.40;69.50
6654;DHT22;3363;50.942;7.034;2023-05-10T14:18:01;17.30;69.20
6654;DHT22;3363;50.942;7.034;2023-05-10T14:20:27;17.30;71.80
6654;DHT22;3363;50.942;7.034;2023-05-10T14:22:54;17.40;71.90
6654;DHT22;3363;50.942;7.034;2023-05-10T14:25:21;17.40;73.00
6654;DHT22;3363;50.942;7.034;2023-05-10T14:27:47;17.50;73.10
6654;DHT22;3363;50.942;7.034;2023-05-10T14:30:14;17.50;72.20
6654;DHT22;3363;50.942;7.034;2023-05-10T14:32:41;17.50;70.80
6654;DHT22;3363;50.942;7.034;2023-05-10T14:35:09;17.40;70.60
6654;DHT22;3363;50.942;7.034;2023-05-10T14:37:35;17.30;69.40
6654;DHT22;3363;50.942;7.034;2023-05-10T14:40:03;17.30;71.00
6654;DHT22;3363;50.942;7.034;2023-05-10T14:42:29;17.20;70.20
6654;DHT22;3363;50.942;7.034;2023-05-10T14:44:56;17.20;72.90
6654;DHT22;3363;50.942;7.034;2023-05-10T14:47:23;17.10;76.90
6654;DHT22;3363;50.942;7.034;2023-05-10T14:49:49;17.10;76.70
6654;DHT22;3363;50.942;7.034;2023-05-10T14:52:18;17.00;72.30
6654;DHT22;3363;50.942;7.034;2023-05-10T14:54:44;17.10;75.10
6654;DHT22;3363;50.942;7.034;2023-05-10T14:57:11;17.00;74.40
6654;DHT22;3363;50.942;7.034;2023-05-10T14:59:38;16.90;76.50
6654;DHT22;3363;50.942;7.034;2023-05-10T15:02:05;16.80;81.30
6654;DHT22;3363;50.942;7.034;2023-05-10T15:04:33;16.80;86.10
6654;DHT22;3363;50.942;7.034;2023-05-10T15:07:00;16.80;90.20
6654;DHT22;3363;50.942;7.034;2023-05-10T15:09:28;16.60;96.50
6654;DHT22;3363;50.942;7.034;2023-05-10T15:11:54;16.60;98.40
6654;DHT22;3363;50.942;7.034;2023-05-10T15:14:21;16.50;99.90
6654;DHT22;3363;50.942;7.034;2023-05-10T15:16:48;16.40;99.90
6654;DHT22;3363;50.942;7.034;2023-05-10T15:19:14;16.40;99.90
6654;DHT22;3363;50.942;7.034;2023-05-10T15:21:41;16.40;99.90
6654;DHT22;3363;50.942;7.034;2023-05-10T15:24:09;16.50;99.90
6654;DHT22;3363;50.942;7.034;2023-05-10T15:26:37;16.40;99.90
6654;DHT22;3363;50.942;7.034;2023-05-10T15:29:04;16.40;99.90
6654;DHT22;3363;50.942;7.034;2023-05-10T15:31:31;16.40;99.90
6654;DHT22;3363;50.942;7.034;2023-05-10T15:34:00;16.50;99.90
6654;DHT22;3363;50.942;7.034;2023-05-10T15:36:26;16.50;99.90
6654;DHT22;3363;50.942;7.034;2023-05-10T15:38:53;16.60;99.90
6654;DHT22;3363;50.942;7.034;2023-05-10T15:41:20;16.60;99.90
6654;DHT22;3363;50.942;7.034;2023-05-10T15:43:48;16.40;99.90
6654;DHT22;3363;50.942;7.034;2023-05-10T15:46:15;16.50;99.90
6654;DHT22;3363;50.942;7.034;2023-05-10T15:48:42;16.50;99.90
6654;DHT22;3363;50.942;7.034;2023-05-10T15:51:08;16.40;99.90
6654;DHT22;3363;50.942;7.034;2023-05-10T15:53:35;16.50;99.90
6654;DHT22;3363;50.942;7.034;2023-05-10T15:56:01;16.50;99.90
6654;DHT22;3363;50.942;7.034;2023-05-10T15:58:28;16.50;99.90
6654;DHT22;3363;50.942;7.034;2023-05-10T16:00:56;16.30;99.90
6654;DHT22;3363;50.942;7.034;2023-05-10T16:03:23;16.10;99.90
6654;DHT22;3363;50.942;7.034;2023-05-10T16:05:49;16.00;99.90
6654;DHT22;3363;50.942;7.034;2023-05-10T16:08:16;15.80;99.90
6654;DHT22;3363;50.942;7.034;2023-05-10T16:10:43;15.90;99.90
6654;DHT22;3363;50.942;7.034;2023-05-10T16:13:09;16.00;99.90
6654;DHT22;3363;50.942;7.034;2023-05-10T16:15:36;16.10;99.90
6654;DHT22;3363;50.942;7.034;2023-05-10T16:18:04;16.20;99.90
6654;DHT22;3363;50.942;7.034;2023-05-10T16:20:31;16.30;99.90
6654;DHT22;3363;50.942;7.034;2023-05-10T16:22:58;16.40;99.90
6654;DHT22;3363;50.942;7.034;2023-05-10T16:25:27;16.30;99.90
6654;DHT22;3363;50.942;7.034;2023-05-10T16:27:53;16.30;99.90
6654;DHT22;3363;50.942;7.034;2023-05-10T16:30:20;16.20;99.90
6654;DHT22;3363;50.942;7.034;2023-05-10T16:32:48;16.20;99.90
6654;DHT22;3363;50.942;7.034;2023-05-10T16:35:16;16.20;99.90
6654;DHT22;3363;50.942;7.034;2023-05-10T16:37:43;16.20;99.90
6654;DHT22;3363;50.942;7.034;2023-05-10T16:40:10;16.20;99.90
6654;DHT22;3363;50.942;7.034;2023-05-10T16:42:36;16.20;99.90
6654;DHT22;3363;50.942;7.034;2023-05-10T16:45:03;16.30;99.90
6654;DHT22;3363;50.942;7.034;2023-05-10T16:47:33;16.30;99.90
6654;DHT22;3363;50.942;7.034;2023-05-10T16:50:00;16.30;99.90
6654;DHT22;3363;50.942;7.034;2023-05-10T16:52:28;16.40;99.90
6654;DHT22;3363;50.942;7.034;2023-05-10T17:22:27;15.90;99.90
6654;DHT22;3363;50.942;7.034;2023-05-10T17:35:28;15.40;99.90
6654;DHT22;3363;50.942;7.034;2023-05-10T18:40:43;15.90;99.90
6654;DHT22;3363;50.942;7.034;2023-05-10T18:43:10;15.90;99.90
6654;DHT22;3363;50.942;7.034;2023-05-10T18:45:37;15.90;99.90
6654;DHT22;3363;50.942;7.034;2023-05-10T18:48:04;15.90;99.90
6654;DHT22;3363;50.942;7.034;2023-05-10T18:50:31;15.90;99.90
6654;DHT22;3363;50.942;7.034;2023-05-10T18:52:57;15.90;99.90
6654;DHT22;3363;50.942;7.034;2023-05-10T18:55:24;15.90;99.90
6654;DHT22;3363;50.942;7.034;2023-05-10T18:57:52;15.70;99.90
6654;DHT22;3363;50.942;7.034;2023-05-10T19:00:19;15.70;99.90
6654;DHT22;3363;50.942;7.034;2023-05-10T19:02:46;15.80;99.90
6654;DHT22;3363;50.942;7.034;2023-05-10T19:05:13;15.80;99.90
6654;DHT22;3363;50.942;7.034;2023-05-10T19:07:40;15.80;99.90
6654;DHT22;3363;50.942;7.034;2023-05-10T19:10:09;15.90;99.90
6654;DHT22;3363;50.942;7.034;2023-05-10T19:12:35;15.90;99.90
6654;DHT22;3363;50.942;7.034;2023-05-10T19:15:04;15.90;99.90
6654;DHT22;3363;50.942;7.034;2023-05-10T19:17:30;15.90;99.90
6654;DHT22;3363;50.942;7.034;2023-05-10T19:19:57;15.90;99.90
6654;DHT22;3363;50.942;7.034;2023-05-10T19:22:24;15.80;99.90
6654;DHT22;3363;50.942;7.034;2023-05-10T19:24:51;15.80;99.90
6654;DHT22;3363;50.942;7.034;2023-05-10T19:27:17;15.80;99.90
6654;DHT22;3363;50.942;7.034;2023-05-10T19:29:44;15.80;99.90
6654;DHT22;3363;50.942;7.034;2023-05-10T19:32:12;15.80;99.90
6654;DHT22;3363;50.942;7.034;2023-05-10T19:34:39;15.80;99.90
6654;DHT22;3363;50.942;7.034;2023-05-10T19:37:05;15.80;99.90
6654;DHT22;3363;50.942;7.034;2023-05-10T19:39:32;15.80;99.90
6654;DHT22;3363;50.942;7.034;2023-05-10T19:42:00;15.80;99.90
6654;DHT22;3363;50.942;7.034;2023-05-10T19:44:28;15.90;99.90
6654;DHT22;3363;50.942;7.034;2023-05-10T19:46:55;15.80;99.90
6654;DHT22;3363;50.942;7.034;2023-05-10T19:49:23;15.80;99.90
6654;DHT22;3363;50.942;7.034;2023-05-10T19:51:49;15.80;99.90
6654;DHT22;3363;50.942;7.034;2023-05-10T19:54:16;15.80;99.90
6654;DHT22;3363;50.942;7.034;2023-05-10T19:56:43;15.80;99.90
6654;DHT22;3363;50.942;7.034;2023-05-10T19:59:09;15.80;99.90
6654;DHT22;3363;50.942;7.034;2023-05-10T20:01:36;15.80;99.90
6654;DHT22;3363;50.942;7.034;2023-05-10T20:04:03;15.80;99.90
6654;DHT22;3363;50.942;7.034;2023-05-10T20:06:31;15.80;99.90
6654;DHT22;3363;50.942;7.034;2023-05-10T20:08:58;15.70;99.90